sensor_id;sensor_type;location;lat;lon;timestamp;P1;durP1;ratioP1;P2;durP2;ratioP2
13255;SDS011;37913;48.370;10.930;2022-07-29T00:00:47;84.82;;;48.25;;
13255;SDS011;37913;48.370;10.930;2022-07-29T00:03:14;92.07;;;48.42;;
13255;SDS011;37913;48.370;10.930;2022-07-29T00:05:42;80.20;;;47.25;;
13255;SDS011;37913;48.370;10.930;2022-07-29T00:08:09;88.00;;;48.20;;
13255;SDS011;37913;48.370;10.930;2022-07-29T00:10:37;92.07;;;48.75;;
13255;SDS011;37913;48.370;10.930;2022-07-29T00:13:04;93.43;;;50.10;;
13255;SDS011;37913;48.370;10.930;2022-07-29T00:15:31;89.45;;;48.97;;
13255;SDS011;37913;48.370;10.930;2022-07-29T00:17:58;94.55;;;49.70;;
13255;SDS011;37913;48.370;10.930;2022-07-29T00:20:25;95.90;;;49.55;;
13255;SDS011;37913;48.370;10.930;2022-07-29T00:22:53;90.50;;;48.72;;
13255;SDS011;37913;48.370;10.930;2022-07-29T00:25:20;94.07;;;49.47;;
13255;SDS011;37913;48.370;10.930;2022-07-29T00:27:47;96.53;;;49.70;;
13255;SDS011;37913;48.370;10.930;2022-07-29T00:30:14;91.55;;;49.13;;
13255;SDS011;37913;48.370;10.930;2022-07-29T00:32:41;97.70;;;50.60;;
13255;SDS011;37913;48.370;10.930;2022-07-29T00:35:08;90.22;;;48.80;;
13255;SDS011;37913;48.370;10.930;2022-07-29T00:37:54;96.28;;;49.97;;
13255;SDS011;37913;48.370;10.930;2022-07-29T00:40:21;91.32;;;49.20;;
13255;SDS011;37913;48.370;10.930;2022-07-29T00:42:48;95.80;;;49.25;;
13255;SDS011;37913;48.370;10.930;2022-07-29T00:45:16;91.68;;;49.38;;
13255;SDS011;37913;48.370;10.930;2022-07-29T00:47:44;90.72;;;49.47;;
13255;SDS011;37913;48.370;10.930;2022-07-29T00:50:11;93.50;;;49.53;;
13255;SDS011;37913;48.370;10.930;2022-07-29T00:52:39;91.20;;;49.22;;
13255;SDS011;37913;48.370;10.930;2022-07-29T00:55:10;95.18;;;49.42;;
13255;SDS011;37913;48.370;10.930;2022-07-29T00:57:37;92.95;;;49.55;;
13255;SDS011;37913;48.370;10.930;2022-07-29T01:00:06;96.95;;;50.22;;
13255;SDS011;37913;48.370;10.930;2022-07-29T01:02:34;91.78;;;49.25;;
13255;SDS011;37913;48.370;10.930;2022-07-29T01:05:02;102.47;;;50.83;;
13255;SDS011;37913;48.370;10.930;2022-07-29T01:07:30;92.10;;;49.75;;
13255;SDS011;37913;48.370;10.930;2022-07-29T01:09:58;82.63;;;47.72;;
13255;SDS011;37913;48.370;10.930;2022-07-29T01:12:28;93.25;;;49.53;;
13255;SDS011;37913;48.370;10.930;2022-07-29T01:14:58;93.88;;;49.72;;
13255;SDS011;37913;48.370;10.930;2022-07-29T01:17:26;93.60;;;49.33;;
13255;SDS011;37913;48.370;10.930;2022-07-29T01:20:00;104.32;;;52.58;;
13255;SDS011;37913;48.370;10.930;2022-07-29T01:22:33;87.75;;;48.72;;
13255;SDS011;37913;48.370;10.930;2022-07-29T01:25:19;93.72;;;48.78;;
13255;SDS011;37913;48.370;10.930;2022-07-29T01:28:09;90.57;;;49.33;;
13255;SDS011;37913;48.370;10.930;2022-07-29T01:30:50;90.90;;;49.03;;
13255;SDS011;37913;48.370;10.930;2022-07-29T01:33:20;92.80;;;49.15;;
13255;SDS011;37913;48.370;10.930;2022-07-29T01:36:09;91.90;;;49.10;;
13255;SDS011;37913;48.370;10.930;2022-07-29T01:38:41;93.35;;;49.53;;
13255;SDS011;37913;48.370;10.930;2022-07-29T01:41:12;93.50;;;50.20;;
13255;SDS011;37913;48.370;10.930;2022-07-29T01:43:44;86.50;;;48.03;;
13255;SDS011;37913;48.370;10.930;2022-07-29T01:46:17;87.00;;;48.22;;
13255;SDS011;37913;48.370;10.930;2022-07-29T01:48:52;85.85;;;47.15;;
13255;SDS011;37913;48.370;10.930;2022-07-29T01:51:24;95.55;;;49.25;;
13255;SDS011;37913;48.370;10.930;2022-07-29T01:54:06;93.40;;;49.10;;
13255;SDS011;37913;48.370;10.930;2022-07-29T01:56:38;91.72;;;48.35;;
13255;SDS011;37913;48.370;10.930;2022-07-29T01:59:06;92.18;;;49.20;;
13255;SDS011;37913;48.370;10.930;2022-07-29T02:01:37;94.70;;;49.28;;
13255;SDS011;37913;48.370;10.930;2022-07-29T02:04:07;89.50;;;47.92;;
13255;SDS011;37913;48.370;10.930;2022-07-29T02:06:37;94.25;;;49.13;;
13255;SDS011;37913;48.370;10.930;2022-07-29T02:09:06;101.40;;;49.70;;
13255;SDS011;37913;48.370;10.930;2022-07-29T02:11:34;92.47;;;48.92;;
13255;SDS011;37913;48.370;10.930;2022-07-29T02:14:03;101.55;;;49.88;;
13255;SDS011;37913;48.370;10.930;2022-07-29T02:16:31;83.80;;;47.35;;
13255;SDS011;37913;48.370;10.930;2022-07-29T02:21:38;99.60;;;50.75;;
13255;SDS011;37913;48.370;10.930;2022-07-29T02:24:05;83.57;;;48.10;;
13255;SDS011;37913;48.370;10.930;2022-07-29T02:26:34;94.00;;;49.30;;
13255;SDS011;37913;48.370;10.930;2022-07-29T02:29:02;97.45;;;50.17;;
13255;SDS011;37913;48.370;10.930;2022-07-29T02:31:30;94.53;;;49.60;;
13255;SDS011;37913;48.370;10.930;2022-07-29T02:33:59;94.93;;;49.45;;
13255;SDS011;37913;48.370;10.930;2022-07-29T02:36:28;96.15;;;49.72;;
13255;SDS011;37913;48.370;10.930;2022-07-29T02:38:58;101.68;;;50.55;;
13255;SDS011;37913;48.370;10.930;2022-07-29T02:41:28;92.40;;;48.67;;
13255;SDS011;37913;48.370;10.930;2022-07-29T02:43:58;82.85;;;46.72;;
13255;SDS011;37913;48.370;10.930;2022-07-29T02:46:31;88.70;;;47.10;;
13255;SDS011;37913;48.370;10.930;2022-07-29T02:49:02;89.00;;;47.63;;
13255;SDS011;37913;48.370;10.930;2022-07-29T02:51:37;93.13;;;48.55;;
13255;SDS011;37913;48.370;10.930;2022-07-29T02:54:11;95.30;;;49.22;;
13255;SDS011;37913;48.370;10.930;2022-07-29T02:56:46;90.97;;;48.90;;
13255;SDS011;37913;48.370;10.930;2022-07-29T02:59:18;99.18;;;50.28;;
13255;SDS011;37913;48.370;10.930;2022-07-29T03:01:51;94.82;;;48.65;;
13255;SDS011;37913;48.370;10.930;2022-07-29T03:04:20;99.40;;;50.22;;
13255;SDS011;37913;48.370;10.930;2022-07-29T03:06:50;99.25;;;50.40;;
13255;SDS011;37913;48.370;10.930;2022-07-29T03:09:19;94.65;;;49.10;;
13255;SDS011;37913;48.370;10.930;2022-07-29T03:11:47;89.93;;;47.53;;
13255;SDS011;37913;48.370;10.930;2022-07-29T03:14:15;92.10;;;48.28;;
13255;SDS011;37913;48.370;10.930;2022-07-29T03:16:44;94.18;;;49.28;;
13255;SDS011;37913;48.370;10.930;2022-07-29T03:19:11;95.05;;;48.83;;
13255;SDS011;37913;48.370;10.930;2022-07-29T03:21:39;96.93;;;49.17;;
13255;SDS011;37913;48.370;10.930;2022-07-29T03:24:06;102.00;;;50.55;;
13255;SDS011;37913;48.370;10.930;2022-07-29T03:26:34;91.18;;;47.58;;
13255;SDS011;37913;48.370;10.930;2022-07-29T03:29:01;98.28;;;49.42;;
13255;SDS011;37913;48.370;10.930;2022-07-29T03:31:28;96.13;;;48.72;;
13255;SDS011;37913;48.370;10.930;2022-07-29T03:33:55;95.05;;;48.83;;
13255;SDS011;37913;48.370;10.930;2022-07-29T03:36:22;96.47;;;49.08;;
13255;SDS011;37913;48.370;10.930;2022-07-29T03:38:49;88.93;;;47.78;;
13255;SDS011;37913;48.370;10.930;2022-07-29T03:41:17;96.38;;;48.97;;
13255;SDS011;37913;48.370;10.930;2022-07-29T03:43:47;90.97;;;47.65;;
13255;SDS011;37913;48.370;10.930;2022-07-29T03:46:16;99.15;;;49.58;;
13255;SDS011;37913;48.370;10.930;2022-07-29T03:48:48;91.72;;;47.92;;
13255;SDS011;37913;48.370;10.930;2022-07-29T03:51:19;91.30;;;47.95;;
13255;SDS011;37913;48.370;10.930;2022-07-29T03:53:46;93.13;;;48.42;;
13255;SDS011;37913;48.370;10.930;2022-07-29T03:56:14;89.60;;;47.88;;
13255;SDS011;37913;48.370;10.930;2022-07-29T03:58:43;88.88;;;47.60;;
13255;SDS011;37913;48.370;10.930;2022-07-29T04:01:11;83.75;;;46.05;;
13255;SDS011;37913;48.370;10.930;2022-07-29T04:03:39;80.22;;;45.60;;
13255;SDS011;37913;48.370;10.930;2022-07-29T04:06:14;94.60;;;48.70;;
13255;SDS011;37913;48.370;10.930;2022-07-29T04:08:41;96.80;;;48.55;;
13255;SDS011;37913;48.370;10.930;2022-07-29T04:11:08;92.68;;;47.75;;
13255;SDS011;37913;48.370;10.930;2022-07-29T04:13:35;91.15;;;47.00;;
13255;SDS011;37913;48.370;10.930;2022-07-29T04:16:02;90.60;;;46.88;;
13255;SDS011;37913;48.370;10.930;2022-07-29T04:18:29;91.72;;;47.50;;
13255;SDS011;37913;48.370;10.930;2022-07-29T04:20:56;88.32;;;46.58;;
13255;SDS011;37913;48.370;10.930;2022-07-29T04:23:27;88.70;;;46.83;;
13255;SDS011;37913;48.370;10.930;2022-07-29T04:25:57;83.88;;;45.67;;
13255;SDS011;37913;48.370;10.930;2022-07-29T04:28:25;92.32;;;47.22;;
13255;SDS011;37913;48.370;10.930;2022-07-29T04:30:52;91.60;;;47.03;;
13255;SDS011;37913;48.370;10.930;2022-07-29T04:33:19;90.30;;;46.78;;
13255;SDS011;37913;48.370;10.930;2022-07-29T04:35:45;86.65;;;46.13;;
13255;SDS011;37913;48.370;10.930;2022-07-29T04:38:12;88.25;;;46.40;;
13255;SDS011;37913;48.370;10.930;2022-07-29T04:40:41;87.22;;;46.13;;
13255;SDS011;37913;48.370;10.930;2022-07-29T04:43:07;75.78;;;44.10;;
13255;SDS011;37913;48.370;10.930;2022-07-29T04:45:34;93.95;;;47.75;;
13255;SDS011;37913;48.370;10.930;2022-07-29T04:48:01;87.97;;;46.08;;
13255;SDS011;37913;48.370;10.930;2022-07-29T04:50:28;92.00;;;47.65;;
13255;SDS011;37913;48.370;10.930;2022-07-29T04:52:55;95.25;;;48.42;;
13255;SDS011;37913;48.370;10.930;2022-07-29T04:55:22;92.70;;;47.35;;
13255;SDS011;37913;48.370;10.930;2022-07-29T04:57:51;93.38;;;48.05;;
13255;SDS011;37913;48.370;10.930;2022-07-29T05:00:18;95.75;;;48.42;;
13255;SDS011;37913;48.370;10.930;2022-07-29T05:02:45;101.88;;;50.25;;
13255;SDS011;37913;48.370;10.930;2022-07-29T05:05:12;94.00;;;48.65;;
13255;SDS011;37913;48.370;10.930;2022-07-29T05:07:38;93.25;;;48.60;;
13255;SDS011;37913;48.370;10.930;2022-07-29T05:10:06;107.10;;;51.22;;
13255;SDS011;37913;48.370;10.930;2022-07-29T05:12:34;103.30;;;49.85;;
13255;SDS011;37913;48.370;10.930;2022-07-29T05:15:03;94.38;;;48.50;;
13255;SDS011;37913;48.370;10.930;2022-07-29T05:17:30;96.35;;;48.80;;
13255;SDS011;37913;48.370;10.930;2022-07-29T05:19:58;90.75;;;48.67;;
13255;SDS011;37913;48.370;10.930;2022-07-29T05:22:25;91.50;;;49.05;;
13255;SDS011;37913;48.370;10.930;2022-07-29T05:24:52;102.15;;;50.30;;
13255;SDS011;37913;48.370;10.930;2022-07-29T05:27:19;90.03;;;48.10;;
13255;SDS011;37913;48.370;10.930;2022-07-29T05:29:46;91.38;;;49.00;;
13255;SDS011;37913;48.370;10.930;2022-07-29T05:32:14;78.57;;;46.35;;
13255;SDS011;37913;48.370;10.930;2022-07-29T05:34:41;93.68;;;49.10;;
13255;SDS011;37913;48.370;10.930;2022-07-29T05:37:09;92.22;;;48.95;;
13255;SDS011;37913;48.370;10.930;2022-07-29T05:39:36;97.55;;;49.65;;
13255;SDS011;37913;48.370;10.930;2022-07-29T05:42:03;91.38;;;48.90;;
13255;SDS011;37913;48.370;10.930;2022-07-29T05:44:35;87.68;;;48.20;;
13255;SDS011;37913;48.370;10.930;2022-07-29T05:47:03;90.85;;;48.15;;
13255;SDS011;37913;48.370;10.930;2022-07-29T05:49:31;84.95;;;47.85;;
13255;SDS011;37913;48.370;10.930;2022-07-29T05:51:59;108.18;;;54.42;;
13255;SDS011;37913;48.370;10.930;2022-07-29T05:54:27;90.50;;;50.10;;
13255;SDS011;37913;48.370;10.930;2022-07-29T05:57:09;89.90;;;48.88;;
13255;SDS011;37913;48.370;10.930;2022-07-29T05:59:47;93.93;;;49.70;;
13255;SDS011;37913;48.370;10.930;2022-07-29T06:02:25;84.47;;;48.58;;
13255;SDS011;37913;48.370;10.930;2022-07-29T06:05:06;105.57;;;53.63;;
13255;SDS011;37913;48.370;10.930;2022-07-29T06:07:50;96.60;;;51.03;;
13255;SDS011;37913;48.370;10.930;2022-07-29T06:10:20;100.93;;;51.17;;
13255;SDS011;37913;48.370;10.930;2022-07-29T06:12:54;92.65;;;49.58;;
13255;SDS011;37913;48.370;10.930;2022-07-29T06:15:30;85.90;;;48.50;;
13255;SDS011;37913;48.370;10.930;2022-07-29T06:18:00;92.93;;;50.75;;
13255;SDS011;37913;48.370;10.930;2022-07-29T06:20:43;94.47;;;50.67;;
13255;SDS011;37913;48.370;10.930;2022-07-29T06:23:20;90.25;;;49.67;;
13255;SDS011;37913;48.370;10.930;2022-07-29T06:26:02;99.30;;;51.95;;
13255;SDS011;37913;48.370;10.930;2022-07-29T06:28:31;87.35;;;49.15;;
13255;SDS011;37913;48.370;10.930;2022-07-29T06:31:06;102.63;;;53.03;;
13255;SDS011;37913;48.370;10.930;2022-07-29T06:33:37;95.60;;;51.63;;
13255;SDS011;37913;48.370;10.930;2022-07-29T06:36:07;95.70;;;51.42;;
13255;SDS011;37913;48.370;10.930;2022-07-29T06:38:34;92.93;;;51.13;;
13255;SDS011;37913;48.370;10.930;2022-07-29T06:41:03;93.07;;;51.78;;
13255;SDS011;37913;48.370;10.930;2022-07-29T06:43:31;92.85;;;52.20;;
13255;SDS011;37913;48.370;10.930;2022-07-29T06:46:01;95.85;;;52.05;;
13255;SDS011;37913;48.370;10.930;2022-07-29T06:48:28;100.00;;;54.33;;
13255;SDS011;37913;48.370;10.930;2022-07-29T06:50:55;85.10;;;50.55;;
13255;SDS011;37913;48.370;10.930;2022-07-29T06:53:24;96.93;;;52.65;;
13255;SDS011;37913;48.370;10.930;2022-07-29T06:55:51;99.65;;;53.03;;
13255;SDS011;37913;48.370;10.930;2022-07-29T06:58:18;92.97;;;51.10;;
13255;SDS011;37913;48.370;10.930;2022-07-29T07:00:45;96.22;;;52.10;;
13255;SDS011;37913;48.370;10.930;2022-07-29T07:03:13;96.55;;;53.22;;
13255;SDS011;37913;48.370;10.930;2022-07-29T07:05:40;98.93;;;53.25;;
13255;SDS011;37913;48.370;10.930;2022-07-29T07:08:07;85.97;;;50.00;;
13255;SDS011;37913;48.370;10.930;2022-07-29T07:10:35;96.50;;;51.65;;
13255;SDS011;37913;48.370;10.930;2022-07-29T07:13:03;96.22;;;52.95;;
13255;SDS011;37913;48.370;10.930;2022-07-29T07:15:31;94.05;;;52.67;;
13255;SDS011;37913;48.370;10.930;2022-07-29T07:17:58;92.50;;;51.78;;
13255;SDS011;37913;48.370;10.930;2022-07-29T07:20:25;83.80;;;50.47;;
13255;SDS011;37913;48.370;10.930;2022-07-29T07:22:52;92.80;;;52.55;;
13255;SDS011;37913;48.370;10.930;2022-07-29T07:25:19;95.65;;;52.97;;
13255;SDS011;37913;48.370;10.930;2022-07-29T07:27:47;100.40;;;52.38;;
13255;SDS011;37913;48.370;10.930;2022-07-29T07:30:14;93.93;;;55.15;;
13255;SDS011;37913;48.370;10.930;2022-07-29T07:32:41;98.68;;;56.65;;
13255;SDS011;37913;48.370;10.930;2022-07-29T07:35:09;98.65;;;57.40;;
13255;SDS011;37913;48.370;10.930;2022-07-29T07:37:37;99.15;;;57.42;;
13255;SDS011;37913;48.370;10.930;2022-07-29T07:40:06;102.70;;;60.53;;
13255;SDS011;37913;48.370;10.930;2022-07-29T07:42:34;101.70;;;59.88;;
13255;SDS011;37913;48.370;10.930;2022-07-29T07:45:02;100.97;;;62.83;;
13255;SDS011;37913;48.370;10.930;2022-07-29T07:47:31;100.68;;;64.85;;
13255;SDS011;37913;48.370;10.930;2022-07-29T07:49:58;103.38;;;68.60;;
13255;SDS011;37913;48.370;10.930;2022-07-29T07:52:25;106.63;;;70.03;;
13255;SDS011;37913;48.370;10.930;2022-07-29T07:54:52;154.93;;;82.60;;
13255;SDS011;37913;48.370;10.930;2022-07-29T07:57:19;109.32;;;76.85;;
13255;SDS011;37913;48.370;10.930;2022-07-29T07:59:47;104.47;;;74.80;;
13255;SDS011;37913;48.370;10.930;2022-07-29T08:02:15;98.82;;;72.70;;
13255;SDS011;37913;48.370;10.930;2022-07-29T08:04:42;102.68;;;72.93;;
13255;SDS011;37913;48.370;10.930;2022-07-29T08:07:09;102.85;;;77.20;;
13255;SDS011;37913;48.370;10.930;2022-07-29T08:09:37;103.90;;;76.00;;
13255;SDS011;37913;48.370;10.930;2022-07-29T08:12:04;104.00;;;73.57;;
13255;SDS011;37913;48.370;10.930;2022-07-29T08:14:32;104.47;;;72.07;;
13255;SDS011;37913;48.370;10.930;2022-07-29T08:16:59;107.28;;;70.55;;
13255;SDS011;37913;48.370;10.930;2022-07-29T08:19:27;99.40;;;65.65;;
13255;SDS011;37913;48.370;10.930;2022-07-29T08:21:55;101.78;;;64.43;;
13255;SDS011;37913;48.370;10.930;2022-07-29T08:24:22;100.20;;;62.00;;
13255;SDS011;37913;48.370;10.930;2022-07-29T08:27:06;103.78;;;64.00;;
13255;SDS011;37913;48.370;10.930;2022-07-29T08:29:33;106.03;;;65.57;;
13255;SDS011;37913;48.370;10.930;2022-07-29T08:32:00;104.90;;;65.93;;
13255;SDS011;37913;48.370;10.930;2022-07-29T08:34:29;111.63;;;70.63;;
13255;SDS011;37913;48.370;10.930;2022-07-29T08:36:56;101.45;;;67.65;;
13255;SDS011;37913;48.370;10.930;2022-07-29T08:39:24;93.05;;;63.42;;
13255;SDS011;37913;48.370;10.930;2022-07-29T08:41:51;105.13;;;62.60;;
13255;SDS011;37913;48.370;10.930;2022-07-29T08:44:20;101.95;;;62.20;;
13255;SDS011;37913;48.370;10.930;2022-07-29T08:46:48;95.68;;;58.58;;
13255;SDS011;37913;48.370;10.930;2022-07-29T08:49:15;106.13;;;62.85;;
13255;SDS011;37913;48.370;10.930;2022-07-29T08:51:44;106.35;;;61.78;;
13255;SDS011;37913;48.370;10.930;2022-07-29T08:54:11;102.65;;;61.35;;
13255;SDS011;37913;48.370;10.930;2022-07-29T08:56:43;98.97;;;59.95;;
13255;SDS011;37913;48.370;10.930;2022-07-29T08:59:11;116.30;;;63.65;;
13255;SDS011;37913;48.370;10.930;2022-07-29T09:01:41;96.07;;;59.88;;
13255;SDS011;37913;48.370;10.930;2022-07-29T09:04:10;97.10;;;60.60;;
13255;SDS011;37913;48.370;10.930;2022-07-29T09:06:40;106.00;;;63.15;;
13255;SDS011;37913;48.370;10.930;2022-07-29T09:09:12;98.25;;;61.97;;
13255;SDS011;37913;48.370;10.930;2022-07-29T09:11:40;101.28;;;63.17;;
13255;SDS011;37913;48.370;10.930;2022-07-29T09:14:08;104.85;;;64.35;;
13255;SDS011;37913;48.370;10.930;2022-07-29T09:16:52;96.10;;;63.00;;
13255;SDS011;37913;48.370;10.930;2022-07-29T09:19:21;100.60;;;63.97;;
13255;SDS011;37913;48.370;10.930;2022-07-29T09:21:54;109.53;;;66.55;;
13255;SDS011;37913;48.370;10.930;2022-07-29T09:24:38;96.70;;;64.68;;
13255;SDS011;37913;48.370;10.930;2022-07-29T09:27:10;103.25;;;63.80;;
13255;SDS011;37913;48.370;10.930;2022-07-29T09:29:54;105.43;;;66.03;;
13255;SDS011;37913;48.370;10.930;2022-07-29T09:32:23;97.85;;;65.32;;
13255;SDS011;37913;48.370;10.930;2022-07-29T09:34:51;131.10;;;73.55;;
13255;SDS011;37913;48.370;10.930;2022-07-29T09:37:46;108.28;;;66.93;;
13255;SDS011;37913;48.370;10.930;2022-07-29T09:40:15;91.95;;;61.50;;
13255;SDS011;37913;48.370;10.930;2022-07-29T09:42:43;117.22;;;69.80;;
13255;SDS011;37913;48.370;10.930;2022-07-29T09:45:10;104.90;;;68.95;;
13255;SDS011;37913;48.370;10.930;2022-07-29T09:47:41;109.45;;;71.57;;
13255;SDS011;37913;48.370;10.930;2022-07-29T09:52:47;102.10;;;78.70;;
13255;SDS011;37913;48.370;10.930;2022-07-29T09:55:16;97.45;;;84.43;;
13255;SDS011;37913;48.370;10.930;2022-07-29T09:57:45;96.40;;;85.30;;
13255;SDS011;37913;48.370;10.930;2022-07-29T10:00:13;107.78;;;93.40;;
13255;SDS011;37913;48.370;10.930;2022-07-29T10:02:41;110.38;;;98.43;;
13255;SDS011;37913;48.370;10.930;2022-07-29T10:05:16;108.90;;;98.40;;
13255;SDS011;37913;48.370;10.930;2022-07-29T10:07:49;113.53;;;101.85;;
13255;SDS011;37913;48.370;10.930;2022-07-29T10:10:21;112.38;;;101.38;;
13255;SDS011;37913;48.370;10.930;2022-07-29T10:12:53;113.43;;;102.32;;
13255;SDS011;37913;48.370;10.930;2022-07-29T10:15:21;108.90;;;98.65;;
13255;SDS011;37913;48.370;10.930;2022-07-29T10:17:50;113.85;;;102.00;;
13255;SDS011;37913;48.370;10.930;2022-07-29T10:20:18;115.82;;;104.00;;
13255;SDS011;37913;48.370;10.930;2022-07-29T10:22:47;110.38;;;97.65;;
13255;SDS011;37913;48.370;10.930;2022-07-29T10:25:16;107.80;;;96.05;;
13255;SDS011;37913;48.370;10.930;2022-07-29T10:27:44;113.90;;;96.43;;
13255;SDS011;37913;48.370;10.930;2022-07-29T10:30:12;114.82;;;94.93;;
13255;SDS011;37913;48.370;10.930;2022-07-29T10:33:05;102.00;;;86.57;;
13255;SDS011;37913;48.370;10.930;2022-07-29T10:35:53;92.05;;;81.82;;
13255;SDS011;37913;48.370;10.930;2022-07-29T10:44:14;107.50;;;90.85;;
13255;SDS011;37913;48.370;10.930;2022-07-29T10:46:43;107.85;;;93.63;;
13255;SDS011;37913;48.370;10.930;2022-07-29T10:49:11;111.97;;;93.57;;
13255;SDS011;37913;48.370;10.930;2022-07-29T10:51:56;106.15;;;94.68;;
13255;SDS011;37913;48.370;10.930;2022-07-29T10:54:42;112.15;;;100.22;;
13255;SDS011;37913;48.370;10.930;2022-07-29T10:57:18;110.03;;;99.22;;
13255;SDS011;37913;48.370;10.930;2022-07-29T10:59:47;118.50;;;106.57;;
13255;SDS011;37913;48.370;10.930;2022-07-29T11:05:09;130.13;;;117.43;;
13255;SDS011;37913;48.370;10.930;2022-07-29T11:07:38;129.90;;;117.63;;
13255;SDS011;37913;48.370;10.930;2022-07-29T11:10:20;131.80;;;118.57;;
13255;SDS011;37913;48.370;10.930;2022-07-29T11:12:48;132.98;;;120.63;;
13255;SDS011;37913;48.370;10.930;2022-07-29T11:15:16;139.75;;;126.53;;
13255;SDS011;37913;48.370;10.930;2022-07-29T11:20:35;137.02;;;124.03;;
13255;SDS011;37913;48.370;10.930;2022-07-29T11:23:20;139.05;;;126.15;;
13255;SDS011;37913;48.370;10.930;2022-07-29T11:28:50;137.68;;;124.22;;
13255;SDS011;37913;48.370;10.930;2022-07-29T11:31:31;126.35;;;114.72;;
13255;SDS011;37913;48.370;10.930;2022-07-29T11:34:16;125.60;;;113.65;;
13255;SDS011;37913;48.370;10.930;2022-07-29T11:39:47;125.20;;;113.47;;
13255;SDS011;37913;48.370;10.930;2022-07-29T11:42:46;127.25;;;115.57;;
13255;SDS011;37913;48.370;10.930;2022-07-29T11:45:18;131.90;;;119.10;;
13255;SDS011;37913;48.370;10.930;2022-07-29T11:47:54;129.77;;;117.97;;
13255;SDS011;37913;48.370;10.930;2022-07-29T11:50:28;136.98;;;123.30;;
13255;SDS011;37913;48.370;10.930;2022-07-29T11:52:57;130.05;;;117.18;;
13255;SDS011;37913;48.370;10.930;2022-07-29T11:55:25;126.13;;;112.95;;
13255;SDS011;37913;48.370;10.930;2022-07-29T11:57:55;117.30;;;105.03;;
13255;SDS011;37913;48.370;10.930;2022-07-29T12:00:25;129.13;;;102.65;;
13255;SDS011;37913;48.370;10.930;2022-07-29T12:02:54;110.75;;;91.93;;
13255;SDS011;37913;48.370;10.930;2022-07-29T12:05:30;100.15;;;88.43;;
13255;SDS011;37913;48.370;10.930;2022-07-29T12:08:07;98.07;;;88.10;;
13255;SDS011;37913;48.370;10.930;2022-07-29T12:10:35;112.03;;;98.43;;
13255;SDS011;37913;48.370;10.930;2022-07-29T12:13:04;131.00;;;106.80;;
13255;SDS011;37913;48.370;10.930;2022-07-29T12:15:31;108.75;;;97.38;;
13255;SDS011;37913;48.370;10.930;2022-07-29T12:18:08;111.40;;;94.10;;
13255;SDS011;37913;48.370;10.930;2022-07-29T12:20:43;109.43;;;90.53;;
13255;SDS011;37913;48.370;10.930;2022-07-29T12:23:10;102.78;;;82.90;;
13255;SDS011;37913;48.370;10.930;2022-07-29T12:25:38;111.45;;;82.63;;
13255;SDS011;37913;48.370;10.930;2022-07-29T12:28:09;109.72;;;80.75;;
13255;SDS011;37913;48.370;10.930;2022-07-29T12:30:38;106.75;;;76.93;;
13255;SDS011;37913;48.370;10.930;2022-07-29T12:33:14;100.25;;;75.63;;
13255;SDS011;37913;48.370;10.930;2022-07-29T12:35:46;102.13;;;75.72;;
13255;SDS011;37913;48.370;10.930;2022-07-29T12:38:15;107.93;;;76.05;;
13255;SDS011;37913;48.370;10.930;2022-07-29T12:40:43;103.13;;;74.03;;
13255;SDS011;37913;48.370;10.930;2022-07-29T12:43:13;97.95;;;72.18;;
13255;SDS011;37913;48.370;10.930;2022-07-29T12:45:42;99.28;;;70.88;;
13255;SDS011;37913;48.370;10.930;2022-07-29T12:48:11;109.20;;;72.30;;
13255;SDS011;37913;48.370;10.930;2022-07-29T12:50:52;106.95;;;71.18;;
13255;SDS011;37913;48.370;10.930;2022-07-29T12:53:20;120.45;;;72.85;;
13255;SDS011;37913;48.370;10.930;2022-07-29T12:55:48;101.85;;;68.90;;
13255;SDS011;37913;48.370;10.930;2022-07-29T12:58:28;98.03;;;67.65;;
13255;SDS011;37913;48.370;10.930;2022-07-29T13:01:03;102.15;;;66.38;;
13255;SDS011;37913;48.370;10.930;2022-07-29T13:03:50;109.28;;;67.32;;
13255;SDS011;37913;48.370;10.930;2022-07-29T13:06:35;97.80;;;62.63;;
13255;SDS011;37913;48.370;10.930;2022-07-29T13:09:08;105.75;;;60.65;;
13255;SDS011;37913;48.370;10.930;2022-07-29T13:11:38;95.00;;;58.50;;
13255;SDS011;37913;48.370;10.930;2022-07-29T13:14:08;97.53;;;57.78;;
13255;SDS011;37913;48.370;10.930;2022-07-29T13:16:38;95.95;;;58.33;;
13255;SDS011;37913;48.370;10.930;2022-07-29T13:19:35;98.40;;;55.95;;
13255;SDS011;37913;48.370;10.930;2022-07-29T13:22:05;95.70;;;56.38;;
13255;SDS011;37913;48.370;10.930;2022-07-29T13:24:33;89.40;;;54.40;;
13255;SDS011;37913;48.370;10.930;2022-07-29T13:27:00;106.47;;;57.10;;
13255;SDS011;37913;48.370;10.930;2022-07-29T13:29:28;109.25;;;58.65;;
13255;SDS011;37913;48.370;10.930;2022-07-29T13:31:55;104.97;;;57.58;;
13255;SDS011;37913;48.370;10.930;2022-07-29T13:34:22;93.30;;;54.75;;
13255;SDS011;37913;48.370;10.930;2022-07-29T13:36:49;97.07;;;56.10;;
13255;SDS011;37913;48.370;10.930;2022-07-29T13:39:16;103.38;;;56.80;;
13255;SDS011;37913;48.370;10.930;2022-07-29T13:41:43;112.93;;;58.92;;
13255;SDS011;37913;48.370;10.930;2022-07-29T13:44:11;97.47;;;55.42;;
13255;SDS011;37913;48.370;10.930;2022-07-29T13:46:39;101.80;;;56.80;;
13255;SDS011;37913;48.370;10.930;2022-07-29T13:49:06;104.07;;;58.10;;
13255;SDS011;37913;48.370;10.930;2022-07-29T13:51:33;97.07;;;55.42;;
13255;SDS011;37913;48.370;10.930;2022-07-29T13:54:00;91.88;;;55.20;;
13255;SDS011;37913;48.370;10.930;2022-07-29T13:56:27;93.68;;;55.88;;
13255;SDS011;37913;48.370;10.930;2022-07-29T13:58:54;101.30;;;58.13;;
13255;SDS011;37913;48.370;10.930;2022-07-29T14:01:22;93.03;;;55.50;;
13255;SDS011;37913;48.370;10.930;2022-07-29T14:03:50;96.13;;;56.05;;
13255;SDS011;37913;48.370;10.930;2022-07-29T14:06:17;104.53;;;57.67;;
13255;SDS011;37913;48.370;10.930;2022-07-29T14:08:44;85.13;;;54.25;;
13255;SDS011;37913;48.370;10.930;2022-07-29T14:11:11;96.07;;;56.95;;
13255;SDS011;37913;48.370;10.930;2022-07-29T14:13:38;97.32;;;57.88;;
13255;SDS011;37913;48.370;10.930;2022-07-29T14:16:05;104.13;;;61.10;;
13255;SDS011;37913;48.370;10.930;2022-07-29T14:18:33;87.32;;;57.97;;
13255;SDS011;37913;48.370;10.930;2022-07-29T14:21:01;108.80;;;65.50;;
13255;SDS011;37913;48.370;10.930;2022-07-29T14:23:28;98.22;;;63.20;;
13255;SDS011;37913;48.370;10.930;2022-07-29T14:25:56;108.32;;;65.57;;
13255;SDS011;37913;48.370;10.930;2022-07-29T14:28:23;100.10;;;62.17;;
13255;SDS011;37913;48.370;10.930;2022-07-29T14:30:51;107.32;;;66.20;;
13255;SDS011;37913;48.370;10.930;2022-07-29T14:33:19;93.93;;;61.92;;
13255;SDS011;37913;48.370;10.930;2022-07-29T14:35:46;106.60;;;65.97;;
13255;SDS011;37913;48.370;10.930;2022-07-29T14:38:14;106.30;;;65.68;;
13255;SDS011;37913;48.370;10.930;2022-07-29T14:40:41;118.88;;;70.28;;
13255;SDS011;37913;48.370;10.930;2022-07-29T14:43:08;102.63;;;63.75;;